LGAD/PYR METAR and TAF weather

Enter ICAO airport designator
Station Type Date Time Source
LGAD METAR 2019/10/14 05:20 UTC NOAA

LGAD 140520Z 00000KT CAVOK 14/14 Q1020


Station Type Date Time Source
LGAD Decoded METAR 2019/10/14 05:20 UTC NOAA

Andravida Airport , Greece (LGAD) 37-55N 021-17E 14M
Oct 14, 2019 - 01:20 AM EDT / 2019.10.14 0520 UTC
Wind: Calm:0
Visibility: greater than 7 mile(s):0
Temperature: 57 F (14 C)
Dew Point: 57 F (14 C)
Relative Humidity: 100%
Pressure (altimeter): 30.12 in. Hg (1020 hPa)
ob: LGAD 140520Z 00000KT CAVOK 14/14 Q1020
cycle: 5

Station Type Date Time Source
LGAD TAF 2011/03/20 15:06 UTC NOAA

TAF TAF LGAD 201400Z 2015/2103 06010KT 9999 FEW020 BKN080 PROB40
TEMPO 2015/2021 6000 RA SCT020 BKN080 PROB30
TEMPO 2015/2021 4000 TSRA FEW018CB SCT025 BKN080

Example: see airport list